createdAt,value
2022-08-12T00:02:02.690Z,98943.91
2022-08-12T00:04:09.856Z,98940.78
2022-08-12T00:06:30.726Z,98944.03
2022-08-12T00:08:53.059Z,98946.63
2022-08-12T00:11:13.993Z,98935.50
2022-08-12T00:13:34.335Z,98940.88
2022-08-12T00:15:55.149Z,98940.19
2022-08-12T00:18:15.568Z,98935.59
2022-08-12T00:20:36.207Z,98932.47
2022-08-12T00:22:59.416Z,98931.75
2022-08-12T00:25:21.960Z,98927.50
2022-08-12T00:28:04.544Z,98940.22
2022-08-12T00:30:25.400Z,98932.81
2022-08-12T00:32:54.694Z,98935.72
2022-08-12T00:35:17.567Z,98937.00
2022-08-12T00:37:40.404Z,98935.50
2022-08-12T00:40:01.327Z,98940.88
2022-08-12T00:42:10.934Z,98940.19
2022-08-12T00:44:15.752Z,98937.53
2022-08-12T00:46:32.942Z,98949.28
2022-08-12T00:48:35.334Z,98940.25
2022-08-12T00:50:40.763Z,98952.81
2022-08-12T00:52:44.939Z,98937.09
2022-08-12T00:54:57.369Z,98937.22
2022-08-12T00:57:02.202Z,98942.56
2022-08-12T00:59:04.234Z,98936.28
2022-08-12T01:01:08.409Z,98927.81
2022-08-12T01:03:15.590Z,98938.69
2022-08-12T01:05:39.103Z,98942.75
2022-08-12T01:08:01.052Z,98935.66
2022-08-12T01:10:29.460Z,98928.09
2022-08-12T01:12:38.251Z,98928.53
2022-08-12T01:14:41.332Z,98927.19
2022-08-12T01:16:43.834Z,98928.66
2022-08-12T01:18:45.760Z,98931.22
2022-08-12T01:20:47.314Z,98928.25
2022-08-12T01:23:15.312Z,98929.16
2022-08-12T01:25:21.145Z,98926.22
2022-08-12T01:27:23.592Z,98927.94
2022-08-12T01:29:32.859Z,98933.31
2022-08-12T01:31:37.341Z,98926.72
2022-08-12T01:34:03.654Z,98931.28
2022-08-12T01:36:10.051Z,98931.03
2022-08-12T01:38:14.012Z,98930.84
2022-08-12T01:40:33.423Z,98938.66
2022-08-12T01:42:59.963Z,98930.25
2022-08-12T01:45:03.177Z,98930.84
2022-08-12T01:47:15.438Z,98926.75
2022-08-12T01:49:28.090Z,98923.56
2022-08-12T01:52:19.980Z,98922.56
2022-08-12T01:54:09.628Z,98923.47
2022-08-12T01:56:14.655Z,98926.03
2022-08-12T01:58:57.114Z,98924.81
2022-08-12T02:01:12.005Z,98922.44
2022-08-12T02:03:31.630Z,98921.09
2022-08-12T02:06:06.321Z,98923.97
2022-08-12T02:08:52.510Z,98923.22
2022-08-12T02:11:21.483Z,98921.38
2022-08-12T02:13:49.288Z,98915.66
2022-08-12T02:16:22.780Z,98918.53
2022-08-12T02:18:43.674Z,98907.81
2022-08-12T02:21:05.718Z,98915.91
2022-08-12T02:23:11.018Z,98922.56
2022-08-12T02:25:33.247Z,98912.09
2022-08-12T02:27:47.229Z,98911.06
2022-08-12T02:29:49.253Z,98915.56
2022-08-12T02:31:52.690Z,98909.81
2022-08-12T02:33:54.470Z,98915.97
2022-08-12T02:35:56.710Z,98915.72
2022-08-12T02:38:01.918Z,98916.38
2022-08-12T02:40:04.529Z,98925.53
2022-08-12T02:42:12.011Z,98913.47
2022-08-12T02:44:16.167Z,98916.00
2022-08-12T02:46:28.053Z,98918.84
2022-08-12T02:48:35.134Z,98916.69
2022-08-12T02:50:44.762Z,98916.78
2022-08-12T02:52:47.512Z,98914.63
2022-08-12T02:54:54.673Z,98898.63
2022-08-12T02:56:56.412Z,98907.81
2022-08-12T02:59:00.019Z,98903.72
2022-08-12T03:01:05.535Z,98909.84
2022-08-12T03:03:10.048Z,98908.50
2022-08-12T03:05:15.342Z,98903.56
2022-08-12T03:07:42.777Z,98908.88
2022-08-12T03:10:04.281Z,98898.69
2022-08-12T03:12:09.845Z,98908.09
2022-08-12T03:14:21.074Z,98901.00
2022-08-12T03:16:23.855Z,98905.19
2022-08-12T03:18:32.151Z,98903.00
2022-08-12T03:20:38.273Z,98901.97
2022-08-12T03:22:40.741Z,98908.09
2022-08-12T03:24:44.814Z,98902.34
2022-08-12T03:26:49.004Z,98905.72
2022-08-12T03:28:54.283Z,98901.88
2022-08-12T03:30:58.654Z,98902.19
2022-08-12T03:33:02.612Z,98901.69
2022-08-12T03:35:07.647Z,98898.97
2022-08-12T03:37:11.239Z,98896.81
2022-08-12T03:39:17.379Z,98899.84
2022-08-12T03:41:37.109Z,98902.41
2022-08-12T03:44:09.653Z,98896.63
2022-08-12T03:46:39.284Z,98904.72
2022-08-12T03:49:00.092Z,98901.41
2022-08-12T03:51:21.300Z,98899.53
2022-08-12T03:53:46.515Z,98901.25
2022-08-12T03:56:06.741Z,98902.94
2022-08-12T03:58:26.821Z,98904.34
2022-08-12T04:00:30.181Z,98904.97
2022-08-12T04:02:34.562Z,98904.41
2022-08-12T04:04:36.155Z,98912.19
2022-08-12T04:06:45.322Z,98913.59
2022-08-12T04:08:49.280Z,98909.19
2022-08-12T04:11:10.040Z,98912.53
2022-08-12T04:13:19.755Z,98917.25
2022-08-12T04:15:25.967Z,98911.47
2022-08-12T04:17:28.396Z,98912.56
2022-08-12T04:19:30.847Z,98907.31
2022-08-12T04:21:34.008Z,98910.09
2022-08-12T04:23:47.701Z,98915.09
2022-08-12T04:25:50.284Z,98919.56
2022-08-12T04:27:51.966Z,98918.44
2022-08-12T04:30:32.010Z,98920.66
2022-08-12T04:32:15.838Z,98918.72
2022-08-12T04:34:18.137Z,98920.97
2022-08-12T04:36:19.788Z,98921.78
2022-08-12T04:38:23.121Z,98919.03
2022-08-12T04:40:28.486Z,98922.59
2022-08-12T04:42:31.019Z,98925.34
2022-08-12T04:44:32.724Z,98923.44
2022-08-12T04:46:35.200Z,98925.09
2022-08-12T04:48:37.554Z,98925.09
2022-08-12T04:50:40.110Z,98920.09
2022-08-12T04:52:42.382Z,98926.44
2022-08-12T04:54:45.179Z,98918.97
2022-08-12T04:57:04.139Z,98918.97
2022-08-12T04:59:07.766Z,98920.59
2022-08-12T05:01:10.736Z,98916.75
2022-08-12T05:03:12.189Z,98921.97
2022-08-12T05:05:20.367Z,98922.50
2022-08-12T05:07:23.005Z,98921.41
2022-08-12T05:09:24.629Z,98923.06
2022-08-12T05:11:54.097Z,98928.28
2022-08-12T05:14:00.494Z,98925.22
2022-08-12T05:16:05.622Z,98923.28
2022-08-12T05:18:19.177Z,98932.91
2022-08-12T05:20:22.485Z,98927.91
2022-08-12T05:22:24.312Z,98930.94
2022-08-12T05:24:26.013Z,98934.22
2022-08-12T05:26:29.725Z,98928.09
2022-08-12T05:28:32.558Z,98937.44
2022-08-12T05:30:36.540Z,98937.69
2022-08-12T05:32:38.143Z,98941.78
2022-08-12T05:34:39.756Z,98943.97
2022-08-12T05:36:44.070Z,98942.25
2022-08-12T05:38:59.424Z,98944.44
2022-08-12T05:41:02.479Z,98945.47
2022-08-12T05:43:04.261Z,98952.59
2022-08-12T05:45:06.966Z,98949.44
2022-08-12T05:47:08.761Z,98946.03
2022-08-12T05:49:10.344Z,98953.97
2022-08-12T05:51:12.421Z,98946.13
2022-08-12T05:53:14.590Z,98955.38
2022-08-12T05:55:16.941Z,98950.88
2022-08-12T05:57:18.930Z,98948.78
2022-08-12T05:59:21.985Z,98946.66
2022-08-12T06:02:10.006Z,98951.44
2022-08-12T06:03:47.666Z,98947.91
2022-08-12T06:05:55.153Z,98951.53
2022-08-12T06:08:01.836Z,98954.03
2022-08-12T06:10:04.957Z,98950.41
2022-08-12T06:12:06.853Z,98954.56
2022-08-12T06:14:11.925Z,98948.09
2022-08-12T06:16:16.517Z,98949.63
2022-08-12T06:18:19.233Z,98947.28
2022-08-12T06:20:28.138Z,98944.06
2022-08-12T06:22:31.413Z,98945.44
2022-08-12T06:24:33.368Z,98951.81
2022-08-12T06:26:35.368Z,98953.50
2022-08-12T06:28:38.563Z,98944.03
2022-08-12T06:30:41.578Z,98943.34
2022-08-12T06:32:47.564Z,98941.84
2022-08-12T06:35:24.340Z,98946.34
2022-08-12T06:37:21.328Z,98946.09
2022-08-12T06:39:27.083Z,98940.91
2022-08-12T06:42:10.770Z,98936.47
2022-08-12T06:44:20.478Z,98939.94
2022-08-12T06:46:28.355Z,98936.25
2022-08-12T06:48:29.984Z,98941.28
2022-08-12T06:50:32.625Z,98928.25
2022-08-12T06:52:36.400Z,98921.25
2022-08-12T06:54:37.978Z,98914.88
2022-08-12T06:57:03.100Z,98930.00
2022-08-12T06:59:03.322Z,98928.56
2022-08-12T07:01:06.481Z,98928.06
2022-08-12T07:03:16.301Z,98921.16
2022-08-12T07:05:25.083Z,98923.47
2022-08-12T07:07:27.375Z,98922.47
2022-08-12T07:10:06.652Z,98922.25
2022-08-12T07:11:51.136Z,98914.00
2022-08-12T07:14:12.595Z,98916.97
2022-08-12T07:16:17.625Z,98913.47
2022-08-12T07:18:20.267Z,98923.13
2022-08-12T07:20:50.247Z,98917.53
2022-08-12T07:22:43.939Z,98917.19
2022-08-12T07:25:05.549Z,98919.97
2022-08-12T07:27:07.326Z,98915.50
2022-08-12T07:29:09.859Z,98924.69
2022-08-12T07:31:12.622Z,98919.38
2022-08-12T07:33:29.216Z,98912.47
2022-08-12T07:35:32.658Z,98917.22
2022-08-12T07:37:40.650Z,98910.28
2022-08-12T07:39:50.923Z,98905.41
2022-08-12T07:42:01.406Z,98906.53
2022-08-12T07:44:06.657Z,98912.03
2022-08-12T07:46:12.241Z,98903.13
2022-08-12T07:48:14.469Z,98899.44
2022-08-12T07:50:23.424Z,98898.06
2022-08-12T07:52:25.634Z,98886.28
2022-08-12T07:54:27.482Z,98893.75
2022-08-12T07:56:32.532Z,98889.56
2022-08-12T07:58:35.451Z,98895.91
2022-08-12T08:00:42.333Z,98896.97
2022-08-12T08:02:44.016Z,98887.59
2022-08-12T08:04:57.819Z,98891.47
2022-08-12T08:07:01.116Z,98890.88
2022-08-12T08:09:05.140Z,98881.06
2022-08-12T08:11:45.639Z,98889.72
2022-08-12T08:13:49.221Z,98887.94
2022-08-12T08:16:02.984Z,98883.31
2022-08-12T08:18:10.626Z,98884.34
2022-08-12T08:20:12.949Z,98880.13
2022-08-12T08:22:14.682Z,98881.50
2022-08-12T08:24:16.864Z,98879.72
2022-08-12T08:26:20.757Z,98875.00
2022-08-12T08:28:22.386Z,98889.28
2022-08-12T08:30:24.236Z,98881.38
2022-08-12T08:32:26.116Z,98876.34
2022-08-12T08:34:53.839Z,98876.50
2022-08-12T08:36:54.769Z,98873.06
2022-08-12T08:38:58.854Z,98877.25
2022-08-12T08:42:19.113Z,98877.41
2022-08-12T08:43:44.267Z,98873.63
2022-08-12T08:45:48.255Z,98865.72
2022-08-12T08:47:51.715Z,98871.94
2022-08-12T08:49:53.786Z,98865.59
2022-08-12T08:51:55.705Z,98873.47
2022-08-12T08:53:57.219Z,98863.50
2022-08-12T08:56:05.126Z,98863.63
2022-08-12T08:58:08.977Z,98862.50
2022-08-12T09:00:19.455Z,98867.03
2022-08-12T09:02:21.221Z,98870.81
2022-08-12T09:05:12.942Z,98870.88
2022-08-12T09:06:53.374Z,98878.59
2022-08-12T09:08:55.792Z,98869.78
2022-08-12T09:14:10.875Z,98875.56
2022-08-12T09:16:02.421Z,98865.13
2022-08-12T09:18:08.906Z,98861.59
2022-08-12T09:20:15.988Z,98861.22
2022-08-12T09:22:20.850Z,98874.56
2022-08-12T09:24:22.678Z,98863.72
2022-08-12T09:26:38.158Z,98861.75
2022-08-12T09:28:48.972Z,98867.03
2022-08-12T09:30:58.956Z,98859.41
2022-08-12T09:33:15.265Z,98865.91
2022-08-12T09:35:28.309Z,98851.38
2022-08-12T09:37:57.658Z,98861.97
2022-08-12T09:40:01.623Z,98856.72
2022-08-12T09:42:38.930Z,98851.88
2022-08-12T09:45:19.397Z,98856.78
2022-08-12T09:47:29.343Z,98853.97
2022-08-12T09:49:37.204Z,98862.06
2022-08-12T09:51:44.480Z,98857.25
2022-08-12T09:54:08.413Z,98859.31
2022-08-12T09:56:58.599Z,98849.22
2022-08-12T09:58:58.732Z,98849.25
2022-08-12T10:01:15.135Z,98831.47
2022-08-12T10:03:32.438Z,98833.94
2022-08-12T10:06:20.580Z,98832.72
2022-08-12T10:08:02.569Z,98831.97
2022-08-12T10:10:04.449Z,98838.84
2022-08-12T10:12:31.415Z,98832.34
2022-08-12T10:14:49.942Z,98832.34
2022-08-12T10:16:54.523Z,98830.72
2022-08-12T10:18:57.395Z,98839.22
2022-08-12T10:20:59.352Z,98830.72
2022-08-12T10:23:01.898Z,98835.19
2022-08-12T10:25:24.341Z,98828.28
2022-08-12T10:28:08.386Z,98820.19
2022-08-12T10:30:41.693Z,98827.44
2022-08-12T10:32:43.975Z,98826.63
2022-08-12T10:34:53.628Z,98829.44
2022-08-12T10:37:22.842Z,98828.97
2022-08-12T10:40:01.676Z,98819.72
2022-08-12T10:42:04.048Z,98822.97
2022-08-12T10:44:05.739Z,98804.34
2022-08-12T10:46:18.461Z,98808.44
2022-08-12T10:48:33.476Z,98803.19
2022-08-12T10:51:01.161Z,98793.88
2022-08-12T10:53:00.370Z,98802.38
2022-08-12T10:55:02.152Z,98803.19
2022-08-12T10:57:18.349Z,98805.25
2022-08-12T10:59:39.201Z,98806.47
2022-08-12T11:04:24.857Z,98804.84
2022-08-12T11:04:27.906Z,98808.91
2022-08-12T11:07:08.462Z,98795.13
2022-08-12T11:08:57.240Z,98795.94
2022-08-12T11:10:59.070Z,98790.25
2022-08-12T11:13:00.870Z,98793.50
2022-08-12T11:15:18.754Z,98791.03
2022-08-12T11:17:43.095Z,98797.13
2022-08-12T11:19:45.492Z,98797.09
2022-08-12T11:21:58.322Z,98783.31
2022-08-12T11:24:03.586Z,98787.34
2022-08-12T11:26:07.467Z,98788.94
2022-08-12T11:28:09.915Z,98779.19
2022-08-12T11:30:30.924Z,98786.88
2022-08-12T11:32:38.517Z,98784.00
2022-08-12T11:34:51.577Z,98792.91
2022-08-12T11:36:57.413Z,98783.56
2022-08-12T11:39:04.224Z,98781.16
2022-08-12T11:41:07.015Z,98777.53
2022-08-12T11:43:17.935Z,98775.91
2022-08-12T11:45:22.391Z,98765.00
2022-08-12T11:47:26.156Z,98760.53
2022-08-12T11:49:31.579Z,98754.47
2022-08-12T11:51:36.550Z,98752.84
2022-08-12T11:53:56.948Z,98756.94
2022-08-12T11:56:08.082Z,98747.25
2022-08-12T11:59:44.484Z,98754.56
2022-08-12T12:02:56.692Z,98749.31
2022-08-12T12:04:58.284Z,98760.66
2022-08-12T12:07:06.995Z,98752.91
2022-08-12T12:09:09.427Z,98747.66
2022-08-12T12:11:11.467Z,98740.78
2022-08-12T12:13:22.845Z,98735.50
2022-08-12T12:15:40.612Z,98748.88
2022-08-12T12:17:42.904Z,98734.66
2022-08-12T12:19:46.118Z,98743.56
2022-08-12T12:21:49.531Z,98745.63
2022-08-12T12:23:51.254Z,98749.28
2022-08-12T12:26:07.229Z,98740.38
2022-08-12T12:28:36.504Z,98741.56
2022-08-12T12:30:32.563Z,98734.69
2022-08-12T12:32:34.234Z,98726.59
2022-08-12T12:34:35.942Z,98722.91
2022-08-12T12:36:38.928Z,98723.28
2022-08-12T12:38:41.309Z,98726.91
2022-08-12T12:40:50.163Z,98722.44
2022-08-12T12:42:59.842Z,98711.50
2022-08-12T12:45:19.070Z,98717.59
2022-08-12T12:47:29.174Z,98711.50
2022-08-12T12:49:31.877Z,98713.94
2022-08-12T12:51:48.761Z,98708.69
2022-08-12T12:54:08.933Z,98713.13
2022-08-12T12:56:21.161Z,98710.28
2022-08-12T12:58:37.256Z,98704.22
2022-08-12T13:00:50.164Z,98704.59
2022-08-12T13:02:57.004Z,98709.03
2022-08-12T13:05:00.310Z,98696.91
2022-08-12T13:07:05.860Z,98701.78
2022-08-12T13:09:13.519Z,98710.28
2022-08-12T13:11:16.793Z,98699.34
2022-08-12T13:14:07.844Z,98700.97
2022-08-12T13:15:43.833Z,98695.28
2022-08-12T13:18:02.881Z,98710.69
2022-08-12T13:20:09.815Z,98702.19
2022-08-12T13:22:21.699Z,98697.72
2022-08-12T13:24:25.672Z,98677.84
2022-08-12T13:26:34.809Z,98687.19
2022-08-12T13:28:43.038Z,98691.63
2022-08-12T13:30:48.353Z,98690.44
2022-08-12T13:32:58.780Z,98692.03
2022-08-12T13:35:04.746Z,98688.03
2022-08-12T13:37:25.703Z,98703.47
2022-08-12T13:39:30.106Z,98699.03
2022-08-12T13:41:35.833Z,98690.56
2022-08-12T13:43:41.303Z,98687.78
2022-08-12T13:45:44.055Z,98686.97
2022-08-12T13:47:57.187Z,98684.16
2022-08-12T13:49:59.836Z,98685.78
2022-08-12T13:52:03.032Z,98671.16
2022-08-12T13:54:08.244Z,98677.66
2022-08-12T13:56:14.837Z,98681.31
2022-08-12T13:58:19.500Z,98674.47
2022-08-12T14:00:23.858Z,98676.84
2022-08-12T14:02:39.928Z,98680.09
2022-08-12T14:04:56.773Z,98677.69
2022-08-12T14:07:02.685Z,98663.91
2022-08-12T14:09:17.516Z,98653.38
2022-08-12T14:11:25.334Z,98661.88
2022-08-12T14:14:04.341Z,98666.75
2022-08-12T14:15:56.058Z,98670.00
2022-08-12T14:18:07.611Z,98656.66
2022-08-12T14:20:13.272Z,98659.47
2022-08-12T14:22:19.132Z,98656.25
2022-08-12T14:24:27.091Z,98664.75
2022-08-12T14:26:29.010Z,98660.31
2022-08-12T14:28:32.536Z,98664.78
2022-08-12T14:30:34.590Z,98664.41
2022-08-12T14:32:36.185Z,98670.50
2022-08-12T14:34:38.014Z,98668.06
2022-08-12T14:36:39.782Z,98659.97
2022-08-12T14:38:44.393Z,98663.63
2022-08-12T14:40:50.712Z,98663.25
2022-08-12T14:42:52.660Z,98661.63
2022-08-12T14:44:59.776Z,98662.03
2022-08-12T14:47:07.681Z,98652.72
2022-08-12T14:49:27.361Z,98657.56
2022-08-12T14:52:55.965Z,98662.41
2022-08-12T14:55:28.382Z,98666.84
2022-08-12T14:56:59.779Z,98656.72
2022-08-12T14:58:37.859Z,98665.59
2022-08-12T15:01:12.479Z,98649.41
2022-08-12T15:03:15.180Z,98656.25
2022-08-12T15:06:05.109Z,98655.03
2022-08-12T15:07:50.156Z,98662.28
2022-08-12T15:09:53.971Z,98657.44
2022-08-12T15:12:03.249Z,98650.97
2022-08-12T15:14:06.007Z,98649.72
2022-08-12T15:16:08.832Z,98654.97
2022-08-12T15:18:21.099Z,98638.03
2022-08-12T15:20:37.294Z,98642.47
2022-08-12T15:22:53.726Z,98638.78
2022-08-12T15:24:58.709Z,98635.97
2022-08-12T15:27:00.469Z,98645.19
2022-08-12T15:29:02.201Z,98653.25
2022-08-12T15:31:21.328Z,98644.38
2022-08-12T15:33:45.141Z,98654.03
2022-08-12T15:35:53.295Z,98651.16
2022-08-12T15:38:10.399Z,98647.50
2022-08-12T15:40:13.363Z,98656.34
2022-08-12T15:42:14.924Z,98657.13
2022-08-12T15:44:38.130Z,98651.03
2022-08-12T15:46:44.578Z,98639.31
2022-08-12T15:48:50.243Z,98646.13
2022-08-12T15:50:55.103Z,98647.28
2022-08-12T15:52:57.942Z,98644.81
2022-08-12T15:55:20.236Z,98640.78
2022-08-12T15:57:24.398Z,98649.59
2022-08-12T15:59:59.999Z,98634.63
2022-08-12T16:01:48.665Z,98640.66
2022-08-12T16:04:00.299Z,98638.22
2022-08-12T16:06:11.488Z,98643.47
2022-08-12T16:08:21.223Z,98636.16
2022-08-12T16:10:30.971Z,98638.56
2022-08-12T16:12:37.584Z,98646.19
2022-08-12T16:14:40.628Z,98641.34
2022-08-12T16:16:42.079Z,98650.94
2022-08-12T16:18:44.892Z,98650.91
2022-08-12T16:20:47.219Z,98650.06
2022-08-12T16:22:57.820Z,98652.03
2022-08-12T16:25:07.186Z,98654.03
2022-08-12T16:27:09.761Z,98654.78
2022-08-12T16:29:15.145Z,98650.34
2022-08-12T16:31:23.309Z,98658.34
2022-08-12T16:33:35.725Z,98665.94
2022-08-12T16:35:40.266Z,98659.44
2022-08-12T16:38:25.612Z,98646.53
2022-08-12T16:40:08.270Z,98660.97
2022-08-12T16:42:10.074Z,98652.50
2022-08-12T16:44:11.654Z,98650.06
2022-08-12T16:46:32.608Z,98652.00
2022-08-12T16:48:39.357Z,98656.78
2022-08-12T16:50:41.272Z,98653.94
2022-08-12T16:52:49.311Z,98645.44
2022-08-12T16:54:52.008Z,98650.66
2022-08-12T16:56:57.672Z,98655.88
2022-08-12T16:58:59.591Z,98650.59
2022-08-12T17:01:01.954Z,98652.19
2022-08-12T17:03:03.880Z,98649.34
2022-08-12T17:05:07.115Z,98650.09
2022-08-12T17:07:16.646Z,98646.88
2022-08-12T17:09:21.904Z,98646.81
2022-08-12T17:11:24.579Z,98644.75
2022-08-12T17:13:26.296Z,98639.53
2022-08-12T17:15:56.971Z,98642.28
2022-08-12T17:17:50.092Z,98634.22
2022-08-12T17:20:35.082Z,98630.13
2022-08-12T17:22:36.992Z,98633.69
2022-08-12T17:24:44.061Z,98641.69
2022-08-12T17:26:58.547Z,98637.22
2022-08-12T17:29:06.662Z,98628.72
2022-08-12T17:31:12.697Z,98635.13
2022-08-12T17:33:24.916Z,98635.09
2022-08-12T17:35:36.811Z,98639.03
2022-08-12T17:37:40.339Z,98632.19
2022-08-12T17:40:12.283Z,98640.56
2022-08-12T17:42:32.440Z,98643.72
2022-08-12T17:44:32.885Z,98644.47
2022-08-12T17:46:34.606Z,98647.69
2022-08-12T17:48:38.458Z,98650.81
2022-08-12T17:50:44.661Z,98652.38
2022-08-12T17:52:49.963Z,98641.88
2022-08-12T17:54:52.908Z,98642.66
2022-08-12T17:56:57.829Z,98649.06
2022-08-12T17:59:01.015Z,98651.81
2022-08-12T18:01:03.201Z,98651.34
2022-08-12T18:03:05.141Z,98653.28
2022-08-12T18:05:10.195Z,98658.47
2022-08-12T18:07:19.276Z,98659.63
2022-08-12T18:09:24.672Z,98660.00
2022-08-12T18:12:06.158Z,98664.38
2022-08-12T18:14:09.298Z,98667.13
2022-08-12T18:16:13.765Z,98665.88
2022-08-12T18:18:30.247Z,98669.44
2022-08-12T18:20:39.590Z,98668.59
2022-08-12T18:22:47.037Z,98667.69
2022-08-12T18:24:50.528Z,98665.66
2022-08-12T18:27:28.039Z,98672.03
2022-08-12T18:29:41.934Z,98678.78
2022-08-12T18:31:59.170Z,98683.53
2022-08-12T18:34:06.655Z,98679.03
2022-08-12T18:36:13.048Z,98677.31
2022-08-12T18:38:19.313Z,98676.06
2022-08-12T18:40:39.851Z,98680.81
2022-08-12T18:42:42.518Z,98684.75
2022-08-12T18:44:58.843Z,98679.34
2022-08-12T18:47:02.564Z,98689.72
2022-08-12T18:49:17.929Z,98686.91
2022-08-12T18:51:45.575Z,98690.84
2022-08-12T18:54:07.314Z,98691.97
2022-08-12T18:56:33.120Z,98697.50
2022-08-12T18:58:37.167Z,98694.94
2022-08-12T19:00:40.161Z,98699.69
2022-08-12T19:02:47.126Z,98701.16
2022-08-12T19:04:52.983Z,98699.41
2022-08-12T19:06:58.937Z,98704.53
2022-08-12T19:09:03.734Z,98704.47
2022-08-12T19:11:30.518Z,98703.94
2022-08-12T19:13:55.731Z,98709.84
2022-08-12T19:16:01.336Z,98706.16
2022-08-12T19:18:08.603Z,98712.06
2022-08-12T19:20:11.989Z,98714.00
2022-08-12T19:22:13.912Z,98715.03
2022-08-12T19:24:49.653Z,98721.66
2022-08-12T19:26:57.699Z,98709.84
2022-08-12T19:28:59.499Z,98714.09
2022-08-12T19:31:56.691Z,98719.91
2022-08-12T19:34:25.505Z,98719.84
2022-08-12T19:36:25.425Z,98720.91
2022-08-12T19:38:29.708Z,98724.44
2022-08-12T19:40:34.727Z,98722.75
2022-08-12T19:42:42.792Z,98723.03
2022-08-12T19:44:51.775Z,98718.88
2022-08-12T19:46:54.623Z,98726.38
2022-08-12T19:49:02.857Z,98727.47
2022-08-12T19:51:08.900Z,98728.47
2022-08-12T19:53:13.849Z,98723.94
2022-08-12T19:55:21.785Z,98721.06
2022-08-12T19:57:24.044Z,98720.53
2022-08-12T19:59:43.326Z,98709.44
2022-08-12T20:02:02.355Z,98719.66
2022-08-12T20:04:05.183Z,98722.75
2022-08-12T20:06:15.263Z,98724.19
2022-08-12T20:08:31.445Z,98720.84
2022-08-12T20:10:46.808Z,98730.69
2022-08-12T20:13:17.675Z,98739.34
2022-08-12T20:15:15.314Z,98743.59
2022-08-12T20:17:17.607Z,98737.44
2022-08-12T20:19:28.476Z,98740.84
2022-08-12T20:21:49.493Z,98746.59
2022-08-12T20:24:00.862Z,98747.66
2022-08-12T20:26:07.307Z,98740.22
2022-08-12T20:28:10.601Z,98747.69
2022-08-12T20:30:13.692Z,98739.53
2022-08-12T20:32:15.460Z,98744.94
2022-08-12T20:34:22.615Z,98740.41
2022-08-12T20:36:42.416Z,98736.66
2022-08-12T20:38:46.743Z,98737.28
2022-08-12T20:40:48.478Z,98744.78
2022-08-12T20:42:53.693Z,98739.75
2022-08-12T20:44:56.865Z,98747.91
2022-08-12T20:47:19.950Z,98752.94
2022-08-12T20:49:25.565Z,98754.69
2022-08-12T20:51:40.745Z,98747.34
2022-08-12T20:53:59.326Z,98746.78
2022-08-12T20:56:19.666Z,98759.25
2022-08-12T20:58:21.911Z,98749.13
2022-08-12T21:00:28.386Z,98755.41
2022-08-12T21:02:30.894Z,98762.88
2022-08-12T21:04:52.305Z,98757.28
2022-08-12T21:06:57.742Z,98749.13
2022-08-12T21:09:06.462Z,98748.19
2022-08-12T21:11:10.274Z,98751.22
2022-08-12T21:13:20.355Z,98739.41
2022-08-12T21:15:30.465Z,98742.09
2022-08-12T21:18:00.898Z,98740.34
2022-08-12T21:19:57.294Z,98746.50
2022-08-12T21:22:01.746Z,98748.38
2022-08-12T21:24:06.073Z,98751.03
2022-08-12T21:26:16.417Z,98754.06
2022-08-12T21:28:21.151Z,98748.69
2022-08-12T21:30:23.489Z,98748.56
2022-08-12T21:32:41.069Z,98744.47
2022-08-12T21:34:50.147Z,98751.94
2022-08-12T21:36:52.948Z,98751.09
2022-08-12T21:38:58.135Z,98742.63
2022-08-12T21:40:59.843Z,98751.69
2022-08-12T21:43:04.317Z,98746.78
2022-08-12T21:45:45.367Z,98748.66
2022-08-12T21:47:28.980Z,98753.41
2022-08-12T21:49:53.447Z,98752.34
2022-08-12T21:52:00.120Z,98759.38
2022-08-12T21:54:07.778Z,98754.13
2022-08-12T21:56:11.629Z,98763.69
2022-08-12T21:58:33.208Z,98757.50
2022-08-12T22:00:37.068Z,98763.44
2022-08-12T22:02:57.847Z,98765.25
2022-08-12T22:05:21.222Z,98768.63
2022-08-12T22:07:26.541Z,98765.34
2022-08-12T22:09:30.242Z,98763.72
2022-08-12T22:11:58.546Z,98768.69
2022-08-12T22:14:08.271Z,98760.44
2022-08-12T22:16:10.854Z,98763.09
2022-08-12T22:18:13.366Z,98768.56
2022-08-12T22:20:21.795Z,98758.75
2022-08-12T22:22:23.862Z,98767.78
2022-08-12T22:24:35.150Z,98768.00
2022-08-12T22:26:38.062Z,98765.88
2022-08-12T22:29:00.928Z,98768.88
2022-08-12T22:31:09.953Z,98761.88
2022-08-12T22:33:19.179Z,98762.09
2022-08-12T22:35:55.747Z,98759.13
2022-08-12T22:37:55.790Z,98762.47
2022-08-12T22:39:57.501Z,98764.28
2022-08-12T22:42:19.961Z,98765.75
2022-08-12T22:44:54.125Z,98762.38
2022-08-12T22:47:16.008Z,98754.88
2022-08-12T22:49:53.441Z,98753.78
2022-08-12T22:52:06.499Z,98756.75
2022-08-12T22:54:34.955Z,98760.06
2022-08-12T22:56:31.518Z,98750.59
2022-08-12T22:58:36.765Z,98748.81
2022-08-12T23:00:52.774Z,98754.59
2022-08-12T23:03:02.721Z,98750.31
2022-08-12T23:05:08.693Z,98751.31
2022-08-12T23:07:12.186Z,98754.28
2022-08-12T23:09:16.888Z,98747.75
2022-08-12T23:11:23.355Z,98746.28
2022-08-12T23:13:44.678Z,98746.81
2022-08-12T23:15:47.809Z,98744.53
2022-08-12T23:17:57.881Z,98741.44
2022-08-12T23:20:01.660Z,98738.38
2022-08-12T23:22:36.059Z,98735.75
2022-08-12T23:24:35.908Z,98738.56
2022-08-12T23:26:56.241Z,98728.78
2022-08-12T23:29:25.935Z,98738.88
2022-08-12T23:32:03.004Z,98742.00
2022-08-12T23:34:01.471Z,98738.56
2022-08-12T23:36:04.922Z,98735.47
2022-08-12T23:38:09.083Z,98739.25
2022-08-12T23:40:15.244Z,98738.28
2022-08-12T23:42:19.694Z,98730.09
2022-08-12T23:44:25.073Z,98731.41
2022-08-12T23:46:33.194Z,98730.44
2022-08-12T23:48:35.260Z,98734.50
2022-08-12T23:50:37.136Z,98733.03
2022-08-12T23:52:41.475Z,98735.97
2022-08-12T23:54:58.325Z,98733.34
2022-08-12T23:57:16.532Z,98725.81
2022-08-12T23:59:18.393Z,98721.53
